Terminal Aerodrome Forecast
Issued by NWS

Home | Current Version | Previous Version | Text Only | Print | Product List | Glossary On
Versions: 1 2 3 4 5 6 7 8 9 10 11 12 13 14 15
000
FTUS44 KMAF 201737
TAFHOB
TAF
KHOB 201737Z 2018/2118 14030G40KT 5SM BLDU SCT040
      TEMPO 2018/2022 3SM BLDU
     FM202200 17025G35KT 5SM BLDU BKN040
     FM210200 17012KT P6SM SCT200
     FM210500 16008KT P6SM SKC
     FM211200 30012KT P6SM SKC=

USA.gov is the U.S. government's official web portal to all federal, state and local government web resources and services.